Time;durP1;ratioP1;P1;durP2;ratioP2;P2;SDS_P1;SDS_P2;PMS_P1;PMS_P2;Temp;Humidity;BMP_temperature;BMP_pressure;BME280_temperature;BME280_humidity;BME280_pressure;Samples;Min_cycle;Max_cycle;Signal;HPM_P1;HPM_P2
2021/01/27 00:02:24;;;;;;;29.30;15.20;;;0.90;92.50;;;;;;5028970;28;20083;-64
2021/01/27 00:04:50;;;;;;;35.43;18.40;;;0.80;92.80;;;;;;5029002;28;20041;-66
2021/01/27 00:07:16;;;;;;;31.67;16.63;;;0.80;92.80;;;;;;5030347;28;20501;-63
2021/01/27 00:09:42;;;;;;;34.53;17.27;;;0.80;93.00;;;;;;5032271;28;20121;-64
2021/01/27 00:12:07;;;;;;;39.20;20.47;;;0.70;92.90;;;;;;5033057;28;20037;-64
2021/01/27 00:14:33;;;;;;;39.53;18.90;;;0.70;93.00;;;;;;5048959;28;20033;-63
2021/01/27 00:16:59;;;;;;;39.13;19.13;;;0.70;93.20;;;;;;5052408;28;20044;-66
2021/01/27 00:19:25;;;;;;;38.17;18.77;;;0.70;93.10;;;;;;5054179;28;20033;-64
2021/01/27 00:21:50;;;;;;;38.13;18.77;;;0.70;92.90;;;;;;5052244;28;20033;-67
2021/01/27 00:24:16;;;;;;;37.67;19.43;;;0.70;92.90;;;;;;5054201;28;20033;-65
2021/01/27 00:26:42;;;;;;;43.47;20.57;;;0.60;93.00;;;;;;5054220;28;20052;-66
2021/01/27 00:29:08;;;;;;;38.70;19.10;;;0.60;92.80;;;;;;5053860;28;20397;-63
2021/01/27 00:31:34;;;;;;;39.13;19.73;;;0.60;92.90;;;;;;5052603;28;20033;-66
2021/01/27 00:33:59;;;;;;;36.57;17.80;;;0.50;92.80;;;;;;5054129;28;20086;-65
2021/01/27 00:36:25;;;;;;;35.00;17.83;;;0.50;92.70;;;;;;5053531;28;20043;-65
2021/01/27 00:38:51;;;;;;;36.20;18.63;;;0.40;92.90;;;;;;5052648;28;20033;-66
2021/01/27 00:41:16;;;;;;;40.10;18.80;;;0.30;92.70;;;;;;5051980;28;20440;-65
2021/01/27 00:43:42;;;;;;;44.67;21.27;;;0.30;92.70;;;;;;5053969;28;20049;-65
2021/01/27 00:46:08;;;;;;;47.77;21.30;;;0.20;93.00;;;;;;5053571;28;20037;-65
2021/01/27 00:48:33;;;;;;;53.87;23.87;;;0.20;93.10;;;;;;5051985;28;20041;-65
2021/01/27 00:50:59;;;;;;;48.07;22.80;;;0.30;93.20;;;;;;5053634;28;20025;-65
2021/01/27 00:53:25;;;;;;;58.27;25.30;;;0.20;93.20;;;;;;5002578;28;20037;-64
2021/01/27 00:55:51;;;;;;;59.60;25.70;;;0.30;93.30;;;;;;5052427;28;20029;-63
2021/01/27 00:58:18;;;;;;;74.00;30.13;;;0.30;93.30;;;;;;5053696;28;20117;-65
2021/01/27 01:00:47;;;;;;;55.87;24.57;;;0.30;93.30;;;;;;5052988;28;20029;-65
2021/01/27 01:03:24;;;;;;;67.00;28.53;;;0.30;93.40;;;;;;5037026;28;20025;-65
2021/01/27 01:05:50;;;;;;;64.50;28.07;;;0.30;93.20;;;;;;5051943;28;20033;-63
2021/01/27 01:08:17;;;;;;;61.77;26.23;;;0.40;93.30;;;;;;5053472;28;20119;-65
2021/01/27 01:10:46;;;;;;;58.07;25.90;;;0.40;93.20;;;;;;5049265;28;20040;-63
2021/01/27 01:13:17;;;;;;;50.83;24.43;;;0.40;93.10;;;;;;5048943;28;20485;-63
2021/01/27 01:15:43;;;;;;;48.55;23.55;;;0.30;93.10;;;;;;5041456;28;20065;-65
2021/01/27 01:18:10;;;;;;;48.43;22.43;;;0.30;93.10;;;;;;5015272;28;20053;-66
2021/01/27 01:20:36;;;;;;;47.00;22.43;;;0.30;93.20;;;;;;5034851;28;20466;-63
2021/01/27 01:23:02;;;;;;;44.57;23.27;;;0.30;93.20;;;;;;5051719;28;20123;-63
2021/01/27 01:25:31;;;;;;;52.60;24.67;;;0.30;93.30;;;;;;5051709;28;20037;-64
2021/01/27 01:27:57;;;;;;;73.33;33.23;;;0.30;93.60;;;;;;5050699;28;20036;-65
2021/01/27 01:30:26;;;;;;;82.97;35.40;;;0.40;94.00;;;;;;5052750;28;20435;-65
2021/01/27 01:32:53;;;;;;;63.97;30.57;;;0.50;94.30;;;;;;5052646;28;20052;-66
2021/01/27 01:35:21;;;;;;;54.97;29.83;;;0.70;94.30;;;;;;5052670;28;20037;-66
2021/01/27 01:37:47;;;;;;;59.80;30.53;;;0.90;94.50;;;;;;5052995;28;20072;-65
2021/01/27 01:40:19;;;;;;;52.10;28.33;;;1.00;94.40;;;;;;5050780;28;20130;-65
2021/01/27 01:42:45;;;;;;;59.03;30.07;;;1.10;94.20;;;;;;5052759;28;20087;-65
2021/01/27 01:45:30;;;;;;;38.07;22.07;;;1.20;94.20;;;;;;5052974;28;20491;-65
2021/01/27 01:47:59;;;;;;;36.50;21.57;;;1.30;94.20;;;;;;5052310;28;20489;-65
2021/01/27 01:50:25;;;;;;;33.57;18.87;;;1.40;94.20;;;;;;5051207;28;20040;-65
2021/01/27 01:52:54;;;;;;;28.10;16.33;;;1.40;94.10;;;;;;5051942;28;20091;-64
2021/01/27 01:55:21;;;;;;;33.03;20.00;;;1.40;94.00;;;;;;5052697;28;20122;-64
2021/01/27 01:57:48;;;;;;;35.00;21.87;;;1.50;94.00;;;;;;5050900;28;20413;-66
2021/01/27 02:00:15;;;;;;;38.10;21.40;;;1.50;94.10;;;;;;5041751;28;20034;-65
2021/01/27 02:02:43;;;;;;;36.63;20.57;;;1.60;94.10;;;;;;5031985;28;20037;-65
2021/01/27 02:05:17;;;;;;;35.37;19.23;;;1.60;94.10;;;;;;5032688;28;20037;-65
2021/01/27 02:07:43;;;;;;;38.33;20.47;;;1.60;94.10;;;;;;5032972;28;20048;-66
2021/01/27 02:10:09;;;;;;;33.83;19.10;;;1.70;94.10;;;;;;5032294;28;20033;-66
2021/01/27 02:13:08;;;;;;;35.00;19.20;;;1.70;94.10;;;;;;5031304;28;20401;-65
2021/01/27 02:15:55;;;;;;;37.73;20.43;;;1.70;94.10;;;;;;5031295;28;20045;-65
2021/01/27 02:18:56;;;;;;;38.27;20.63;;;1.80;94.10;;;;;;5031132;28;20047;-65
2021/01/27 02:21:39;;;;;;;36.28;21.73;;;1.80;94.10;;;;;;5031427;28;20080;-65
2021/01/27 02:24:14;;;;;;;34.33;19.33;;;1.80;93.90;;;;;;5031065;28;20075;-66
2021/01/27 02:26:52;;;;;;;36.60;20.23;;;1.80;94.00;;;;;;5030497;28;20038;-65
2021/01/27 02:29:38;;;;;;;33.20;18.77;;;1.80;93.90;;;;;;5031045;28;20029;-65
2021/01/27 02:32:34;;;;;;;34.33;21.07;;;1.80;93.80;;;;;;5029649;28;20218;-65
2021/01/27 02:35:10;;;;;;;33.67;18.87;;;1.80;93.80;;;;;;5030190;28;20045;-65
2021/01/27 02:37:55;;;;;;;34.13;19.07;;;1.70;93.60;;;;;;5031974;28;20103;-65
2021/01/27 02:40:43;;;;;;;44.20;22.73;;;1.70;93.60;;;;;;5031436;28;20041;-65
2021/01/27 02:43:16;;;;;;;42.20;22.07;;;1.60;93.70;;;;;;5030302;28;20060;-65
2021/01/27 02:45:51;;;;;;;47.47;23.67;;;1.60;93.70;;;;;;5032252;28;20108;-64
2021/01/27 02:48:25;;;;;;;47.60;23.90;;;1.60;93.70;;;;;;5031592;28;20050;-65
2021/01/27 02:50:57;;;;;;;45.67;23.53;;;1.50;93.80;;;;;;5031948;28;20116;-65
2021/01/27 02:53:29;;;;;;;47.87;23.33;;;1.50;93.80;;;;;;5030196;28;20049;-65
2021/01/27 02:56:20;;;;;;;46.27;23.50;;;1.50;94.00;;;;;;5032348;28;20132;-65
2021/01/27 02:59:06;;;;;;;43.92;22.70;;;1.50;94.00;;;;;;5031784;28;20051;-65
2021/01/27 03:01:42;;;;;;;47.20;23.53;;;1.50;93.90;;;;;;5031113;28;20064;-65
2021/01/27 03:04:19;;;;;;;46.50;24.30;;;1.50;94.00;;;;;;5030500;28;20041;-65
2021/01/27 03:06:47;;;;;;;53.83;24.90;;;1.60;94.10;;;;;;5031418;28;20049;-65
2021/01/27 03:09:19;;;;;;;42.87;23.00;;;1.60;94.30;;;;;;5031826;28;20030;-65
2021/01/27 03:11:45;;;;;;;46.47;23.17;;;1.60;94.30;;;;;;5029808;28;20038;-65
2021/01/27 03:14:11;;;;;;;42.10;22.77;;;1.70;94.30;;;;;;5030383;28;20612;-65
2021/01/27 03:16:53;;;;;;;40.07;21.10;;;1.80;94.30;;;;;;5031648;28;20397;-65
2021/01/27 03:19:42;;;;;;;37.07;20.93;;;1.80;94.30;;;;;;5031297;28;20056;-65
2021/01/27 03:22:14;;;;;;;40.27;21.77;;;1.80;94.30;;;;;;5030944;28;20057;-65
2021/01/27 03:25:05;;;;;;;39.73;20.93;;;1.90;94.30;;;;;;5030292;28;20033;-65
2021/01/27 03:27:38;;;;;;;36.25;19.83;;;1.90;94.20;;;;;;5029871;28;20033;-65
2021/01/27 03:30:09;;;;;;;40.73;21.63;;;1.90;94.10;;;;;;5029980;28;20041;-66
2021/01/27 03:33:05;;;;;;;35.43;20.60;;;1.90;94.10;;;;;;5030878;28;20037;-64
2021/01/27 03:35:50;;;;;;;43.83;21.77;;;1.90;94.10;;;;;;5031014;28;20033;-64
2021/01/27 03:38:28;;;;;;;37.33;21.20;;;1.90;94.00;;;;;;5030085;28;20112;-64
2021/01/27 03:41:00;;;;;;;38.83;21.83;;;1.80;93.90;;;;;;5030709;28;20555;-66
2021/01/27 03:43:38;;;;;;;48.13;23.03;;;1.80;93.90;;;;;;5030461;28;20084;-65
2021/01/27 03:46:22;;;;;;;46.57;24.40;;;1.80;94.00;;;;;;5031035;28;20500;-66
2021/01/27 03:49:16;;;;;;;45.57;24.90;;;1.80;94.10;;;;;;5029933;28;20041;-64
2021/01/27 03:51:51;;;;;;;43.47;24.60;;;1.80;94.10;;;;;;5026335;28;20037;-64
2021/01/27 03:54:18;;;;;;;45.90;25.40;;;1.80;94.10;;;;;;5029731;28;20037;-65
2021/01/27 03:57:00;;;;;;;50.97;27.03;;;1.80;94.10;;;;;;5013077;28;20493;-65
2021/01/27 03:59:25;;;;;;;48.50;25.40;;;1.70;94.00;;;;;;5029739;28;20045;-66
2021/01/27 04:01:53;;;;;;;51.90;24.97;;;1.70;94.00;;;;;;5028972;28;20033;-66
2021/01/27 04:04:20;;;;;;;47.57;25.37;;;1.70;94.00;;;;;;5013257;28;20462;-65
2021/01/27 04:06:46;;;;;;;54.90;26.53;;;1.70;94.00;;;;;;5029367;28;20328;-64
2021/01/27 04:09:12;;;;;;;50.77;27.93;;;1.70;94.10;;;;;;5031091;28;20449;-66
2021/01/27 04:11:38;;;;;;;54.17;27.37;;;1.70;94.20;;;;;;5030642;28;20375;-66
2021/01/27 04:14:04;;;;;;;49.27;25.83;;;1.70;94.30;;;;;;5030370;28;20032;-65
2021/01/27 04:16:30;;;;;;;47.63;25.60;;;1.80;94.40;;;;;;5029551;28;20398;-64
2021/01/27 04:18:57;;;;;;;52.77;26.63;;;1.80;94.40;;;;;;5029693;28;20030;-72
2021/01/27 04:21:23;;;;;;;52.90;26.80;;;1.90;94.40;;;;;;5030575;28;20064;-72
2021/01/27 04:23:49;;;;;;;46.07;25.40;;;1.90;94.50;;;;;;5029518;28;20030;-72
2021/01/27 04:26:14;;;;;;;47.53;26.17;;;2.00;94.50;;;;;;5030603;28;20639;-72
2021/01/27 04:28:40;;;;;;;45.93;25.80;;;2.00;94.50;;;;;;5029542;28;20310;-72
2021/01/27 04:31:06;;;;;;;49.43;27.73;;;2.10;94.50;;;;;;5030015;28;20137;-72
2021/01/27 04:33:32;;;;;;;45.87;27.07;;;2.10;94.50;;;;;;5030687;28;20116;-72
2021/01/27 04:35:58;;;;;;;51.07;27.67;;;2.20;94.50;;;;;;5030803;28;20041;-73
2021/01/27 04:38:24;;;;;;;51.27;28.33;;;2.20;94.50;;;;;;5030358;28;20120;-72
2021/01/27 04:40:54;;;;;;;50.10;27.67;;;2.20;94.40;;;;;;5030442;28;20037;-72
2021/01/27 04:43:31;;;;;;;50.40;28.85;;;2.20;94.40;;;;;;5030376;28;20539;-73
2021/01/27 04:46:15;;;;;;;49.83;27.97;;;2.30;94.40;;;;;;5030767;28;20034;-73
2021/01/27 04:49:05;;;;;;;52.97;27.90;;;2.30;94.40;;;;;;5029053;28;20037;-72
2021/01/27 04:52:05;;;;;;;55.03;28.37;;;2.30;94.40;;;;;;5018049;28;20136;-72
2021/01/27 04:54:39;;;;;;;47.83;27.33;;;2.30;94.30;;;;;;5030396;28;20350;-73
2021/01/27 04:57:07;;;;;;;50.47;29.13;;;2.30;94.30;;;;;;5033179;28;20149;-72
2021/01/27 04:59:59;;;;;;;53.23;29.20;;;2.30;94.30;;;;;;5032902;28;20030;-73
2021/01/27 05:02:49;;;;;;;48.67;26.63;;;2.30;94.30;;;;;;5033260;28;20041;-73
2021/01/27 05:05:22;;;;;;;51.17;28.50;;;2.30;94.30;;;;;;5027374;28;20065;-71
2021/01/27 05:08:00;;;;;;;49.43;28.30;;;2.40;94.30;;;;;;5034030;28;20072;-73
2021/01/27 05:10:33;;;;;;;50.23;29.50;;;2.40;94.40;;;;;;5032175;28;20056;-72
2021/01/27 05:13:21;;;;;;;53.47;30.07;;;2.40;94.40;;;;;;5033843;28;20060;-73
2021/01/27 05:15:48;;;;;;;51.53;28.43;;;2.40;94.30;;;;;;5032579;28;20041;-72
2021/01/27 05:18:14;;;;;;;55.47;29.47;;;2.40;94.40;;;;;;5033864;28;20494;-72
2021/01/27 05:20:39;;;;;;;51.67;29.03;;;2.40;94.30;;;;;;5033122;28;20043;-73
2021/01/27 05:23:05;;;;;;;54.23;30.57;;;2.40;94.20;;;;;;5033700;28;20041;-72
2021/01/27 05:25:40;;;;;;;58.80;30.27;;;2.40;94.30;;;;;;5033775;28;20045;-73
2021/01/27 05:28:12;;;;;;;52.80;28.10;;;2.40;94.30;;;;;;5033450;28;20045;-72
2021/01/27 05:30:54;;;;;;;52.07;29.63;;;2.40;94.20;;;;;;5033322;28;20079;-71
2021/01/27 05:33:40;;;;;;;58.63;29.77;;;2.50;94.30;;;;;;5033250;28;20033;-72
2021/01/27 05:36:08;;;;;;;57.90;30.27;;;2.50;94.20;;;;;;5032974;28;20045;-72
2021/01/27 05:38:33;;;;;;;58.50;29.70;;;2.50;94.20;;;;;;5033415;28;20034;-72
2021/01/27 05:41:06;;;;;;;56.43;30.37;;;2.50;94.20;;;;;;5033146;28;20543;-72
2021/01/27 05:43:32;;;;;;;60.13;29.87;;;2.50;94.20;;;;;;5032902;28;20037;-73
2021/01/27 05:46:35;;;;;;;57.27;30.80;;;2.50;94.20;;;;;;5033438;28;20060;-72
2021/01/27 05:49:02;;;;;;;53.23;29.67;;;2.50;94.10;;;;;;5032456;28;20030;-72
2021/01/27 05:51:28;;;;;;;51.27;30.53;;;2.50;94.10;;;;;;5033040;28;20398;-73
2021/01/27 05:53:54;;;;;;;52.97;30.60;;;2.50;94.10;;;;;;5031295;28;20116;-72
2021/01/27 05:56:22;;;;;;;59.73;31.57;;;2.50;94.20;;;;;;5033101;28;20060;-72
2021/01/27 05:59:01;;;;;;;52.03;29.07;;;2.50;94.20;;;;;;5035071;28;20520;-73
2021/01/27 06:01:35;;;;;;;53.07;30.63;;;2.50;94.10;;;;;;5040510;28;20037;-72
2021/01/27 06:04:15;;;;;;;56.53;32.07;;;2.50;94.10;;;;;;5032821;28;20067;-72
2021/01/27 06:06:50;;;;;;;55.47;30.13;;;2.50;94.10;;;;;;5032127;28;20042;-72
2021/01/27 06:09:42;;;;;;;54.40;30.53;;;2.50;94.10;;;;;;5032641;28;20037;-72
2021/01/27 06:12:20;;;;;;;55.17;30.27;;;2.50;94.10;;;;;;5032000;28;20045;-72
2021/01/27 06:15:02;;;;;;;52.47;29.60;;;2.50;94.10;;;;;;5031469;28;20056;-72
2021/01/27 06:17:30;;;;;;;52.43;28.97;;;2.50;94.10;;;;;;5032179;28;20056;-72
2021/01/27 06:20:00;;;;;;;53.23;30.33;;;2.50;94.00;;;;;;5033506;28;20034;-68
2021/01/27 06:23:07;;;;;;;50.63;29.90;;;2.50;94.10;;;;;;5010723;28;20410;-67
2021/01/27 06:26:12;;;;;;;55.83;30.73;;;2.50;94.10;;;;;;5007975;28;20072;-68
2021/01/27 06:28:56;;;;;;;55.47;30.93;;;2.50;94.00;;;;;;5031904;28;20096;-68
2021/01/27 06:31:57;;;;;;;59.50;30.73;;;2.50;94.00;;;;;;5038134;28;20050;-67
2021/01/27 06:34:43;;;;;;;49.10;29.07;;;2.50;94.00;;;;;;5042154;28;20520;-69
2021/01/27 06:37:21;;;;;;;54.17;29.43;;;2.60;94.00;;;;;;5045624;28;20041;-69
2021/01/27 06:39:52;;;;;;;50.27;29.30;;;2.60;94.20;;;;;;5041529;28;20040;-69
2021/01/27 06:42:47;;;;;;;51.10;29.03;;;2.60;94.00;;;;;;5050927;28;20036;-69
2021/01/27 06:45:18;;;;;;;48.40;29.03;;;2.60;93.90;;;;;;5045669;28;20120;-67
2021/01/27 06:48:09;;;;;;;48.83;28.98;;;2.60;93.80;;;;;;5041321;28;20049;-69
2021/01/27 06:50:52;;;;;;;50.40;28.73;;;2.60;93.70;;;;;;5046583;28;20056;-68
2021/01/27 06:53:42;;;;;;;52.23;29.37;;;2.60;93.60;;;;;;5038375;28;20063;-69
2021/01/27 06:56:31;;;;;;;48.70;28.40;;;2.50;93.60;;;;;;5051244;28;20046;-67
2021/01/27 06:59:35;;;;;;;51.77;28.80;;;2.50;93.60;;;;;;5017229;28;20041;-69
2021/01/27 07:02:44;;;;;;;50.13;29.43;;;2.50;93.60;;;;;;5050111;28;20047;-69
2021/01/27 07:05:28;;;;;;;47.47;27.50;;;2.40;93.50;;;;;;5036891;28;20037;-69
2021/01/27 07:08:21;;;;;;;50.70;28.80;;;2.40;93.50;;;;;;5049864;28;20052;-69
2021/01/27 07:11:19;;;;;;;51.60;28.67;;;2.40;93.50;;;;;;5049394;28;20029;-69
2021/01/27 07:14:09;;;;;;;52.77;29.13;;;2.40;93.50;;;;;;5011472;28;20037;-68
2021/01/27 07:16:55;;;;;;;50.72;27.88;;;2.40;93.60;;;;;;5051012;28;20119;-69
2021/01/27 07:19:53;;;;;;;49.77;28.87;;;2.30;93.50;;;;;;5048231;28;20393;-69
2021/01/27 07:22:30;;;;;;;55.40;29.23;;;2.30;93.60;;;;;;5029802;28;20033;-67
2021/01/27 07:25:27;;;;;;;50.23;27.60;;;2.40;93.60;;;;;;5032512;28;20037;-69
2021/01/27 07:28:07;;;;;;;45.87;26.57;;;2.40;93.60;;;;;;5037242;28;20071;-69
2021/01/27 07:30:41;;;;;;;45.67;26.93;;;2.40;93.50;;;;;;5043784;28;20036;-68
2021/01/27 07:33:15;;;;;;;46.17;23.43;;;2.40;93.50;;;;;;5031546;28;20033;-69
2021/01/27 07:35:57;;;;;;;47.07;27.13;;;2.40;93.50;;;;;;5048507;28;20037;-66
2021/01/27 07:38:29;;;;;;;46.70;26.73;;;2.40;93.50;;;;;;5049622;28;20039;-67
2021/01/27 07:41:03;;;;;;;44.67;26.47;;;2.40;93.40;;;;;;5048344;28;20098;-67
2021/01/27 07:43:50;;;;;;;44.20;26.33;;;2.40;93.40;;;;;;5046459;28;20123;-69
2021/01/27 07:46:19;;;;;;;45.10;25.83;;;2.40;93.40;;;;;;5056868;28;20041;-68
2021/01/27 07:48:52;;;;;;;45.00;25.83;;;2.40;93.30;;;;;;5046870;28;20124;-69
2021/01/27 07:51:20;;;;;;;45.00;25.70;;;2.50;93.30;;;;;;5050293;28;20053;-68
2021/01/27 07:54:21;;;;;;;43.57;25.50;;;2.40;93.30;;;;;;5032992;28;20127;-68
2021/01/27 07:57:15;;;;;;;44.80;25.38;;;2.50;93.30;;;;;;5033034;28;20036;-68
2021/01/27 08:00:12;;;;;;;39.43;23.43;;;2.50;93.30;;;;;;5049675;28;20126;-69
2021/01/27 08:03:04;;;;;;;42.77;24.37;;;2.60;93.20;;;;;;5012863;28;20090;-70
2021/01/27 08:05:43;;;;;;;39.97;23.57;;;2.60;93.20;;;;;;5029668;28;20509;-68
2021/01/27 08:08:14;;;;;;;38.57;23.13;;;2.70;93.10;;;;;;5049154;28;20118;-67
2021/01/27 08:10:41;;;;;;;39.55;23.02;;;2.70;93.10;;;;;;5050447;28;20120;-68
2021/01/27 08:13:17;;;;;;;38.93;22.83;;;2.70;93.10;;;;;;5050234;28;20045;-68
2021/01/27 08:16:16;;;;;;;37.90;23.63;;;2.80;93.00;;;;;;5050745;28;20118;-68
2021/01/27 08:19:06;;;;;;;39.00;23.47;;;2.80;93.00;;;;;;5025691;28;20033;-68
2021/01/27 08:21:53;;;;;;;35.47;22.27;;;2.90;92.90;;;;;;5043455;28;20033;-68
2021/01/27 08:24:37;;;;;;;43.07;22.97;;;2.90;92.80;;;;;;5032068;28;20132;-69
2021/01/27 08:27:15;;;;;;;39.53;22.20;;;2.90;92.70;;;;;;5049895;28;20489;-68
2021/01/27 08:29:54;;;;;;;39.47;22.63;;;2.90;92.40;;;;;;5035345;28;20040;-69
2021/01/27 08:32:23;;;;;;;43.17;22.97;;;2.80;92.40;;;;;;5020431;28;20033;-68
2021/01/27 08:34:51;;;;;;;36.77;22.97;;;2.80;92.60;;;;;;5054224;28;20041;-68
2021/01/27 08:37:23;;;;;;;38.37;23.23;;;2.90;92.70;;;;;;5053964;28;20112;-68
2021/01/27 08:40:21;;;;;;;33.33;20.73;;;3.00;93.00;;;;;;5052692;28;20044;-68
2021/01/27 08:42:53;;;;;;;30.30;19.77;;;3.40;93.90;;;;;;5040732;28;20037;-68
2021/01/27 08:45:21;;;;;;;28.60;18.57;;;4.40;93.80;;;;;;5046747;28;20033;-68
2021/01/27 08:47:53;;;;;;;31.43;19.67;;;5.50;93.00;;;;;;5052063;28;20047;-69
2021/01/27 08:50:52;;;;;;;26.57;17.30;;;6.60;92.60;;;;;;5047939;28;20045;-69
2021/01/27 08:53:26;;;;;;;26.73;17.13;;;8.00;91.70;;;;;;5048428;28;20036;-68
2021/01/27 08:55:57;;;;;;;27.67;18.60;;;8.70;89.80;;;;;;5045297;28;20060;-68
2021/01/27 08:58:37;;;;;;;29.77;18.70;;;9.10;88.70;;;;;;5045728;28;20037;-69
2021/01/27 09:01:09;;;;;;;32.53;19.48;;;9.00;85.80;;;;;;5044064;28;20037;-68
2021/01/27 09:03:37;;;;;;;34.50;19.20;;;8.20;83.30;;;;;;5053270;28;20351;-69
2021/01/27 09:06:27;;;;;;;31.57;19.80;;;7.40;85.00;;;;;;5053628;28;20037;-69
2021/01/27 09:09:07;;;;;;;28.27;19.30;;;7.00;88.40;;;;;;5043096;28;20041;-70
2021/01/27 09:11:33;;;;;;;29.10;19.17;;;7.60;90.40;;;;;;5033271;28;20091;-70
2021/01/27 09:14:08;;;;;;;28.83;19.23;;;9.30;89.40;;;;;;5032574;28;20034;-69
2021/01/27 09:16:36;;;;;;;24.67;16.88;;;10.40;85.70;;;;;;5032095;28;20398;-69
2021/01/27 09:19:12;;;;;;;24.23;18.23;;;11.50;83.20;;;;;;5031709;28;20033;-69
2021/01/27 09:21:38;;;;;;;22.60;16.48;;;12.20;80.10;;;;;;5031713;28;20443;-69
2021/01/27 09:24:09;;;;;;;22.17;16.27;;;12.30;77.00;;;;;;5014784;28;20079;-69
2021/01/27 09:26:43;;;;;;;23.30;15.70;;;11.80;76.30;;;;;;5033108;28;20037;-69
2021/01/27 09:29:15;;;;;;;25.20;16.40;;;11.10;76.40;;;;;;5031426;28;20038;-69
2021/01/27 09:31:41;;;;;;;22.35;15.55;;;10.70;76.90;;;;;;5032589;28;20030;-68
2021/01/27 09:34:26;;;;;;;22.35;16.45;;;10.10;75.90;;;;;;5031124;28;20522;-69
2021/01/27 09:36:59;;;;;;;21.88;15.55;;;9.50;76.90;;;;;;5032826;28;20068;-69
2021/01/27 09:39:31;;;;;;;22.48;16.33;;;9.20;75.40;;;;;;5032514;28;20033;-69
2021/01/27 09:42:01;;;;;;;23.50;15.88;;;8.80;75.70;;;;;;5031130;28;20046;-69
2021/01/27 09:44:38;;;;;;;22.60;15.38;;;8.50;76.00;;;;;;5032266;28;20125;-69
2021/01/27 09:47:10;;;;;;;23.63;13.93;;;8.50;75.60;;;;;;5015478;28;20419;-69
2021/01/27 09:49:39;;;;;;;22.37;14.47;;;8.20;75.90;;;;;;5014681;28;20116;-69
2021/01/27 09:52:10;;;;;;;20.37;13.07;;;7.90;76.30;;;;;;5031946;28;20037;-68
2021/01/27 09:54:40;;;;;;;21.33;12.55;;;7.50;76.30;;;;;;5031003;28;20363;-69
2021/01/27 09:57:09;;;;;;;21.70;12.70;;;7.20;77.00;;;;;;5043641;28;20048;-69
2021/01/27 09:59:35;;;;;;;19.37;11.97;;;6.90;77.40;;;;;;5052138;28;20080;-69
2021/01/27 10:02:01;;;;;;;18.93;11.27;;;6.90;78.20;;;;;;5052078;28;20033;-69
2021/01/27 10:04:36;;;;;;;19.30;10.97;;;6.80;77.70;;;;;;5052381;28;20047;-69
2021/01/27 10:07:14;;;;;;;17.90;10.13;;;6.60;77.40;;;;;;5052085;28;20043;-69
2021/01/27 10:09:46;;;;;;;18.90;9.87;;;6.50;77.60;;;;;;5052189;28;20048;-67
2021/01/27 10:12:28;;;;;;;16.20;9.67;;;6.50;78.40;;;;;;5034129;28;20175;-67
2021/01/27 10:15:09;;;;;;;16.87;9.80;;;6.50;78.50;;;;;;5051869;28;20033;-69
2021/01/27 10:17:36;;;;;;;16.47;8.50;;;6.50;77.60;;;;;;5039505;28;20032;-69
2021/01/27 10:20:05;;;;;;;14.70;8.70;;;6.30;76.80;;;;;;5051786;28;20056;-69
2021/01/27 10:22:38;;;;;;;14.80;8.33;;;6.20;76.90;;;;;;5033945;28;20037;-69
2021/01/27 10:25:28;;;;;;;14.10;8.70;;;6.20;77.20;;;;;;5033543;28;20505;-69
2021/01/27 10:28:15;;;;;;;15.63;9.27;;;6.20;77.10;;;;;;5033972;28;20045;-69
2021/01/27 10:30:45;;;;;;;13.53;8.17;;;6.20;77.80;;;;;;5033501;28;20041;-69
2021/01/27 10:33:30;;;;;;;14.80;8.30;;;6.50;77.90;;;;;;5033937;28;20036;-68
2021/01/27 10:35:56;;;;;;;13.93;7.90;;;6.60;76.50;;;;;;5033449;28;20497;-68
2021/01/27 10:38:24;;;;;;;13.50;7.57;;;6.60;76.70;;;;;;5033922;28;20098;-68
2021/01/27 10:41:03;;;;;;;13.37;7.40;;;6.80;76.80;;;;;;5033025;28;20048;-69
2021/01/27 10:43:29;;;;;;;13.00;7.37;;;6.90;75.80;;;;;;5051480;28;20498;-69
2021/01/27 10:45:56;;;;;;;11.93;6.90;;;7.10;76.90;;;;;;5033241;28;20064;-69
2021/01/27 10:48:29;;;;;;;12.00;6.90;;;7.30;76.30;;;;;;5002338;28;20037;-69
2021/01/27 10:51:09;;;;;;;14.80;7.63;;;7.60;76.30;;;;;;5050802;28;20044;-69
2021/01/27 10:53:41;;;;;;;12.90;7.60;;;7.90;74.70;;;;;;5019374;28;20087;-69
2021/01/27 10:56:07;;;;;;;12.77;7.70;;;7.90;74.20;;;;;;5050209;28;20429;-70
2021/01/27 10:58:33;;;;;;;12.63;7.27;;;7.90;73.80;;;;;;5051458;28;20033;-69
2021/01/27 11:00:59;;;;;;;12.80;7.60;;;7.80;73.10;;;;;;5050654;28;20036;-68
2021/01/27 11:03:25;;;;;;;13.87;7.70;;;7.60;71.90;;;;;;5040077;28;20036;-70
2021/01/27 11:05:51;;;;;;;12.37;7.03;;;7.40;72.80;;;;;;5051094;28;20561;-70
2021/01/27 11:08:33;;;;;;;14.53;7.50;;;7.40;73.30;;;;;;5046709;28;20065;-70
2021/01/27 11:11:01;;;;;;;13.87;7.63;;;7.40;73.90;;;;;;5029760;28;20076;-69
2021/01/27 11:13:28;;;;;;;13.07;7.50;;;7.50;74.00;;;;;;5029408;28;20521;-70
2021/01/27 11:15:54;;;;;;;13.33;7.50;;;7.60;73.70;;;;;;5029825;28;20040;-68
2021/01/27 11:18:20;;;;;;;14.80;7.43;;;7.70;73.30;;;;;;5033852;28;20120;-70
2021/01/27 11:20:47;;;;;;;15.30;7.47;;;7.70;72.20;;;;;;5050785;28;20204;-70
2021/01/27 11:23:14;;;;;;;13.70;7.23;;;7.40;71.40;;;;;;5041272;28;20041;-69
2021/01/27 11:25:39;;;;;;;13.00;8.00;;;7.20;71.80;;;;;;5050306;28;20405;-69
2021/01/27 11:28:05;;;;;;;13.03;7.47;;;7.00;71.60;;;;;;5050628;28;20045;-69
2021/01/27 11:30:31;;;;;;;14.80;8.07;;;6.80;71.70;;;;;;5032379;28;20102;-69
2021/01/27 11:32:58;;;;;;;15.03;8.07;;;6.70;72.60;;;;;;5032877;28;20178;-70
2021/01/27 11:35:24;;;;;;;14.37;7.73;;;6.60;72.20;;;;;;5050820;28;20088;-68
2021/01/27 11:37:50;;;;;;;13.90;7.70;;;6.40;71.60;;;;;;5032674;28;20512;-69
2021/01/27 11:40:19;;;;;;;15.03;8.00;;;6.20;72.10;;;;;;5050554;28;20037;-69
2021/01/27 11:42:45;;;;;;;11.97;7.17;;;6.10;72.60;;;;;;5049795;28;20041;-68
2021/01/27 11:45:12;;;;;;;15.77;7.40;;;6.10;72.70;;;;;;5050664;28;20033;-68
2021/01/27 11:47:37;;;;;;;13.20;7.83;;;6.10;72.90;;;;;;5050524;28;20052;-69
2021/01/27 11:50:05;;;;;;;15.77;7.90;;;6.10;72.80;;;;;;5049933;28;20033;-69
2021/01/27 11:52:31;;;;;;;14.27;7.50;;;6.00;72.60;;;;;;5050288;28;20500;-70
2021/01/27 11:54:57;;;;;;;13.27;7.23;;;6.10;73.00;;;;;;5050082;28;20447;-69
2021/01/27 11:57:23;;;;;;;14.23;7.20;;;6.10;73.60;;;;;;5050612;28;20029;-70
2021/01/27 11:59:48;;;;;;;13.20;6.80;;;6.30;73.80;;;;;;5035917;28;20041;-69
2021/01/27 12:02:14;;;;;;;13.00;7.93;;;6.40;73.00;;;;;;5027665;28;20049;-68
2021/01/27 12:04:41;;;;;;;14.20;7.10;;;6.50;73.00;;;;;;5012022;28;20037;-68
2021/01/27 12:07:06;;;;;;;10.73;6.40;;;6.60;73.20;;;;;;5028520;28;20191;-69
2021/01/27 12:09:36;;;;;;;12.80;6.17;;;6.70;72.80;;;;;;5029173;28;20461;-69
2021/01/27 12:12:04;;;;;;;12.27;7.07;;;6.80;72.40;;;;;;5028479;28;20030;-68
2021/01/27 12:14:29;;;;;;;12.23;6.63;;;6.90;72.60;;;;;;5029861;28;20382;-68
2021/01/27 12:16:55;;;;;;;11.90;6.30;;;7.20;73.10;;;;;;5023984;28;20055;-68
2021/01/27 12:19:21;;;;;;;10.57;5.70;;;7.50;72.10;;;;;;5043879;28;20498;-68
2021/01/27 12:21:47;;;;;;;11.37;5.80;;;7.50;70.60;;;;;;5030028;28;20125;-68
2021/01/27 12:24:13;;;;;;;10.73;5.13;;;7.50;71.20;;;;;;5030063;28;20037;-67
2021/01/27 12:26:40;;;;;;;11.50;5.43;;;7.30;70.10;;;;;;5029622;28;20500;-68
2021/01/27 12:29:06;;;;;;;9.60;5.40;;;7.10;69.60;;;;;;5032630;28;20405;-68
2021/01/27 12:31:32;;;;;;;11.37;5.30;;;7.00;70.00;;;;;;5034563;28;20037;-68
2021/01/27 12:33:58;;;;;;;11.83;5.50;;;6.80;70.00;;;;;;5047187;28;20393;-69
2021/01/27 12:36:23;;;;;;;10.27;5.10;;;6.60;70.60;;;;;;5047848;28;20083;-69
2021/01/27 12:38:49;;;;;;;10.37;4.90;;;6.50;70.40;;;;;;5047748;28;20501;-69
2021/01/27 12:41:15;;;;;;;9.67;4.97;;;6.30;70.10;;;;;;5048808;28;20051;-66
2021/01/27 12:43:41;;;;;;;9.63;4.87;;;6.20;70.80;;;;;;5032872;28;20083;-68
2021/01/27 12:46:07;;;;;;;9.43;5.03;;;6.20;71.10;;;;;;5048541;28;20083;-66
2021/01/27 12:48:33;;;;;;;10.20;5.37;;;6.00;71.00;;;;;;5050531;28;20047;-66
2021/01/27 12:50:59;;;;;;;9.37;5.20;;;6.00;71.50;;;;;;5049731;28;20048;-68
2021/01/27 12:53:26;;;;;;;10.23;5.57;;;6.00;71.00;;;;;;5032709;28;20037;-66
2021/01/27 12:55:53;;;;;;;9.43;5.43;;;5.90;71.80;;;;;;5049203;28;20056;-68
2021/01/27 12:58:19;;;;;;;9.30;5.10;;;6.00;72.10;;;;;;5048799;28;20029;-67
2021/01/27 13:00:45;;;;;;;10.80;4.97;;;6.00;71.90;;;;;;5048940;28;20075;-68
2021/01/27 13:03:10;;;;;;;10.53;5.13;;;5.90;71.40;;;;;;5049912;28;20052;-68
2021/01/27 13:05:37;;;;;;;8.80;4.77;;;5.80;71.20;;;;;;5050432;28;20040;-68
2021/01/27 13:08:04;;;;;;;8.63;4.87;;;5.70;71.30;;;;;;5049065;28;20044;-68
2021/01/27 13:10:30;;;;;;;8.60;4.43;;;5.70;71.90;;;;;;5048625;28;20056;-68
2021/01/27 13:12:56;;;;;;;8.90;4.37;;;5.60;72.00;;;;;;5048772;28;20405;-68
2021/01/27 13:15:22;;;;;;;9.70;4.90;;;5.50;71.50;;;;;;5049912;28;20041;-68